sensor_id;sensor_type;location;lat;lon;timestamp;temperature;humidity
64924;HTU21D;51436;44.692;39.214;2024-02-21T00:00:29;3.71;67.56
64924;HTU21D;51436;44.692;39.214;2024-02-21T00:02:55;3.70;67.59
64924;HTU21D;51436;44.692;39.214;2024-02-21T00:05:25;3.67;67.67
64924;HTU21D;51436;44.692;39.214;2024-02-21T00:08:14;3.68;67.61
64924;HTU21D;51436;44.692;39.214;2024-02-21T00:10:41;3.71;67.62
64924;HTU21D;51436;44.692;39.214;2024-02-21T00:13:07;3.73;67.54
64924;HTU21D;51436;44.692;39.214;2024-02-21T00:15:33;3.71;67.57
64924;HTU21D;51436;44.692;39.214;2024-02-21T00:18:00;3.64;67.73
64924;HTU21D;51436;44.692;39.214;2024-02-21T00:20:26;3.64;67.79
64924;HTU21D;51436;44.692;39.214;2024-02-21T00:22:53;3.67;67.69
64924;HTU21D;51436;44.692;39.214;2024-02-21T00:25:20;3.65;67.71
64924;HTU21D;51436;44.692;39.214;2024-02-21T00:27:47;3.60;67.75
64924;HTU21D;51436;44.692;39.214;2024-02-21T00:30:13;3.45;67.98
64924;HTU21D;51436;44.692;39.214;2024-02-21T00:32:40;3.39;68.20
64924;HTU21D;51436;44.692;39.214;2024-02-21T00:35:07;3.41;68.11
64924;HTU21D;51436;44.692;39.214;2024-02-21T00:37:33;3.36;68.10
64924;HTU21D;51436;44.692;39.214;2024-02-21T00:40:00;3.27;68.25
64924;HTU21D;51436;44.692;39.214;2024-02-21T00:42:28;3.19;68.33
64924;HTU21D;51436;44.692;39.214;2024-02-21T00:44:55;3.16;68.40
64924;HTU21D;51436;44.692;39.214;2024-02-21T00:47:21;3.17;68.42
64924;HTU21D;51436;44.692;39.214;2024-02-21T00:49:47;3.21;68.29
64924;HTU21D;51436;44.692;39.214;2024-02-21T00:52:14;3.25;68.22
64924;HTU21D;51436;44.692;39.214;2024-02-21T00:54:40;3.29;68.14
64924;HTU21D;51436;44.692;39.214;2024-02-21T00:57:07;3.30;68.12
64924;HTU21D;51436;44.692;39.214;2024-02-21T00:59:33;3.34;68.04
64924;HTU21D;51436;44.692;39.214;2024-02-21T01:01:59;3.36;67.94
64924;HTU21D;51436;44.692;39.214;2024-02-21T01:04:26;3.38;67.96
64924;HTU21D;51436;44.692;39.214;2024-02-21T01:06:52;3.44;67.86
64924;HTU21D;51436;44.692;39.214;2024-02-21T01:09:18;3.44;67.79
64924;HTU21D;51436;44.692;39.214;2024-02-21T01:11:45;3.41;67.91
64924;HTU21D;51436;44.692;39.214;2024-02-21T01:14:11;3.39;67.93
64924;HTU21D;51436;44.692;39.214;2024-02-21T01:16:37;3.35;67.99
64924;HTU21D;51436;44.692;39.214;2024-02-21T01:19:04;3.35;68.02
64924;HTU21D;51436;44.692;39.214;2024-02-21T01:21:30;3.33;68.01
64924;HTU21D;51436;44.692;39.214;2024-02-21T01:23:56;3.35;67.96
64924;HTU21D;51436;44.692;39.214;2024-02-21T01:26:23;3.38;67.90
64924;HTU21D;51436;44.692;39.214;2024-02-21T01:28:49;3.40;67.84
64924;HTU21D;51436;44.692;39.214;2024-02-21T01:31:15;3.39;67.79
64924;HTU21D;51436;44.692;39.214;2024-02-21T01:33:42;3.35;67.92
64924;HTU21D;51436;44.692;39.214;2024-02-21T01:36:08;3.33;67.98
64924;HTU21D;51436;44.692;39.214;2024-02-21T01:38:35;3.34;67.96
64924;HTU21D;51436;44.692;39.214;2024-02-21T01:41:01;3.31;68.01
64924;HTU21D;51436;44.692;39.214;2024-02-21T01:43:28;3.28;68.05
64924;HTU21D;51436;44.692;39.214;2024-02-21T01:45:55;3.23;68.13
64924;HTU21D;51436;44.692;39.214;2024-02-21T01:48:22;3.19;68.20
64924;HTU21D;51436;44.692;39.214;2024-02-21T01:50:50;3.21;68.10
64924;HTU21D;51436;44.692;39.214;2024-02-21T01:53:30;3.18;68.14
64924;HTU21D;51436;44.692;39.214;2024-02-21T01:55:56;3.16;68.20
64924;HTU21D;51436;44.692;39.214;2024-02-21T01:58:24;3.15;68.20
64924;HTU21D;51436;44.692;39.214;2024-02-21T02:00:51;3.16;68.17
64924;HTU21D;51436;44.692;39.214;2024-02-21T02:03:17;3.18;68.17
64924;HTU21D;51436;44.692;39.214;2024-02-21T02:05:48;3.23;68.02
64924;HTU21D;51436;44.692;39.214;2024-02-21T02:08:15;3.26;68.02
64924;HTU21D;51436;44.692;39.214;2024-02-21T02:11:02;3.29;67.91
64924;HTU21D;51436;44.692;39.214;2024-02-21T02:13:52;3.25;67.99
64924;HTU21D;51436;44.692;39.214;2024-02-21T02:16:19;3.19;68.16
64924;HTU21D;51436;44.692;39.214;2024-02-21T02:18:45;3.14;68.25
64924;HTU21D;51436;44.692;39.214;2024-02-21T02:21:32;3.12;68.30
64924;HTU21D;51436;44.692;39.214;2024-02-21T02:24:00;3.16;68.23
64924;HTU21D;51436;44.692;39.214;2024-02-21T02:26:27;3.14;68.26
64924;HTU21D;51436;44.692;39.214;2024-02-21T02:28:53;3.13;68.24
64924;HTU21D;51436;44.692;39.214;2024-02-21T02:31:19;3.17;68.20
64924;HTU21D;51436;44.692;39.214;2024-02-21T02:33:46;3.16;68.17
64924;HTU21D;51436;44.692;39.214;2024-02-21T02:36:14;3.12;68.29
64924;HTU21D;51436;44.692;39.214;2024-02-21T02:38:40;3.10;68.35
64924;HTU21D;51436;44.692;39.214;2024-02-21T02:41:06;3.13;68.30
64924;HTU21D;51436;44.692;39.214;2024-02-21T02:43:33;3.19;68.17
64924;HTU21D;51436;44.692;39.214;2024-02-21T02:45:59;3.24;68.06
64924;HTU21D;51436;44.692;39.214;2024-02-21T02:48:26;3.25;68.07
64924;HTU21D;51436;44.692;39.214;2024-02-21T02:50:52;3.27;68.03
64924;HTU21D;51436;44.692;39.214;2024-02-21T02:53:19;3.35;67.88
64924;HTU21D;51436;44.692;39.214;2024-02-21T02:55:45;3.35;67.80
64924;HTU21D;51436;44.692;39.214;2024-02-21T02:58:12;3.29;67.95
64924;HTU21D;51436;44.692;39.214;2024-02-21T03:00:38;3.23;68.10
64924;HTU21D;51436;44.692;39.214;2024-02-21T03:03:05;3.26;68.10
64924;HTU21D;51436;44.692;39.214;2024-02-21T03:05:32;3.26;68.05
64924;HTU21D;51436;44.692;39.214;2024-02-21T03:07:58;3.25;68.04
64924;HTU21D;51436;44.692;39.214;2024-02-21T03:10:25;3.28;68.03
64924;HTU21D;51436;44.692;39.214;2024-02-21T03:12:51;3.32;67.88
64924;HTU21D;51436;44.692;39.214;2024-02-21T03:15:19;3.26;67.97
64924;HTU21D;51436;44.692;39.214;2024-02-21T03:17:45;3.14;68.21
64924;HTU21D;51436;44.692;39.214;2024-02-21T03:20:12;3.09;68.37
64924;HTU21D;51436;44.692;39.214;2024-02-21T03:22:39;3.04;68.42
64924;HTU21D;51436;44.692;39.214;2024-02-21T03:25:07;3.04;68.42
64924;HTU21D;51436;44.692;39.214;2024-02-21T03:27:34;3.02;68.40
64924;HTU21D;51436;44.692;39.214;2024-02-21T03:30:00;3.03;68.42
64924;HTU21D;51436;44.692;39.214;2024-02-21T03:32:27;3.11;68.26
64924;HTU21D;51436;44.692;39.214;2024-02-21T03:34:55;3.19;68.04
64924;HTU21D;51436;44.692;39.214;2024-02-21T03:37:21;3.20;68.04
64924;HTU21D;51436;44.692;39.214;2024-02-21T03:39:50;3.24;68.01
64924;HTU21D;51436;44.692;39.214;2024-02-21T03:42:18;3.24;67.97
64924;HTU21D;51436;44.692;39.214;2024-02-21T03:44:44;3.21;68.00
64924;HTU21D;51436;44.692;39.214;2024-02-21T03:47:10;3.23;68.01
64924;HTU21D;51436;44.692;39.214;2024-02-21T03:49:37;3.20;68.10
64924;HTU21D;51436;44.692;39.214;2024-02-21T03:52:04;3.20;68.10
64924;HTU21D;51436;44.692;39.214;2024-02-21T03:54:30;3.14;68.25
64924;HTU21D;51436;44.692;39.214;2024-02-21T03:56:57;3.17;68.26
64924;HTU21D;51436;44.692;39.214;2024-02-21T03:59:23;3.25;68.10
64924;HTU21D;51436;44.692;39.214;2024-02-21T04:01:53;3.28;67.95
64924;HTU21D;51436;44.692;39.214;2024-02-21T04:04:20;3.33;67.84
64924;HTU21D;51436;44.692;39.214;2024-02-21T04:06:48;3.36;67.78
64924;HTU21D;51436;44.692;39.214;2024-02-21T04:09:14;3.39;67.74
64924;HTU21D;51436;44.692;39.214;2024-02-21T04:11:41;3.41;67.71
64924;HTU21D;51436;44.692;39.214;2024-02-21T04:14:07;3.40;67.70
64924;HTU21D;51436;44.692;39.214;2024-02-21T04:16:34;3.34;67.83
64924;HTU21D;51436;44.692;39.214;2024-02-21T04:19:01;3.34;67.90
64924;HTU21D;51436;44.692;39.214;2024-02-21T04:21:30;3.38;67.91
64924;HTU21D;51436;44.692;39.214;2024-02-21T04:23:56;3.34;67.88
64924;HTU21D;51436;44.692;39.214;2024-02-21T04:26:23;3.28;68.08
64924;HTU21D;51436;44.692;39.214;2024-02-21T04:28:49;3.31;68.08
64924;HTU21D;51436;44.692;39.214;2024-02-21T04:31:19;3.31;68.00
64924;HTU21D;51436;44.692;39.214;2024-02-21T04:33:45;3.31;68.00
64924;HTU21D;51436;44.692;39.214;2024-02-21T04:36:12;3.27;68.09
64924;HTU21D;51436;44.692;39.214;2024-02-21T04:38:38;3.29;68.04
64924;HTU21D;51436;44.692;39.214;2024-02-21T04:41:05;3.28;68.07
64924;HTU21D;51436;44.692;39.214;2024-02-21T04:43:31;3.26;68.13
64924;HTU21D;51436;44.692;39.214;2024-02-21T04:45:58;3.31;68.06
64924;HTU21D;51436;44.692;39.214;2024-02-21T04:48:25;3.36;67.92
64924;HTU21D;51436;44.692;39.214;2024-02-21T04:50:51;3.35;67.90
64924;HTU21D;51436;44.692;39.214;2024-02-21T04:53:18;3.27;68.07
64924;HTU21D;51436;44.692;39.214;2024-02-21T04:55:44;3.31;68.10
64924;HTU21D;51436;44.692;39.214;2024-02-21T04:58:11;3.31;68.07
64924;HTU21D;51436;44.692;39.214;2024-02-21T05:00:37;3.29;68.07
64924;HTU21D;51436;44.692;39.214;2024-02-21T05:03:04;3.27;68.12
64924;HTU21D;51436;44.692;39.214;2024-02-21T05:05:30;3.24;68.07
64924;HTU21D;51436;44.692;39.214;2024-02-21T05:07:59;3.24;68.13
64924;HTU21D;51436;44.692;39.214;2024-02-21T05:10:26;3.26;68.06
64924;HTU21D;51436;44.692;39.214;2024-02-21T05:12:55;3.29;67.99
64924;HTU21D;51436;44.692;39.214;2024-02-21T05:15:22;3.36;67.84
64924;HTU21D;51436;44.692;39.214;2024-02-21T05:17:51;3.43;67.74
64924;HTU21D;51436;44.692;39.214;2024-02-21T05:20:17;3.48;67.67
64924;HTU21D;51436;44.692;39.214;2024-02-21T05:22:44;3.54;67.55
64924;HTU21D;51436;44.692;39.214;2024-02-21T05:25:10;3.55;67.52
64924;HTU21D;51436;44.692;39.214;2024-02-21T05:27:36;3.57;67.52
64924;HTU21D;51436;44.692;39.214;2024-02-21T05:30:05;3.61;67.43
64924;HTU21D;51436;44.692;39.214;2024-02-21T05:32:32;3.63;67.40
64924;HTU21D;51436;44.692;39.214;2024-02-21T05:35:00;3.64;67.39
64924;HTU21D;51436;44.692;39.214;2024-02-21T05:37:26;3.63;67.46
64924;HTU21D;51436;44.692;39.214;2024-02-21T05:39:52;3.53;67.66
64924;HTU21D;51436;44.692;39.214;2024-02-21T05:42:19;3.49;67.77
64924;HTU21D;51436;44.692;39.214;2024-02-21T05:44:45;3.50;67.77
64924;HTU21D;51436;44.692;39.214;2024-02-21T05:47:12;3.57;67.67
64924;HTU21D;51436;44.692;39.214;2024-02-21T05:49:44;3.57;67.65
64924;HTU21D;51436;44.692;39.214;2024-02-21T05:52:10;3.61;67.59
64924;HTU21D;51436;44.692;39.214;2024-02-21T05:54:40;3.57;67.60
64924;HTU21D;51436;44.692;39.214;2024-02-21T05:57:09;3.52;67.66
64924;HTU21D;51436;44.692;39.214;2024-02-21T05:59:39;3.46;67.88
64924;HTU21D;51436;44.692;39.214;2024-02-21T06:02:09;3.48;67.89
64924;HTU21D;51436;44.692;39.214;2024-02-21T06:04:36;3.54;67.74
64924;HTU21D;51436;44.692;39.214;2024-02-21T06:07:02;3.57;67.68
64924;HTU21D;51436;44.692;39.214;2024-02-21T06:09:28;3.63;67.55
64924;HTU21D;51436;44.692;39.214;2024-02-21T06:11:55;3.71;67.40
64924;HTU21D;51436;44.692;39.214;2024-02-21T06:14:21;3.74;67.34
64924;HTU21D;51436;44.692;39.214;2024-02-21T06:16:47;3.72;67.39
64924;HTU21D;51436;44.692;39.214;2024-02-21T06:19:14;3.67;67.49
64924;HTU21D;51436;44.692;39.214;2024-02-21T06:21:40;3.69;67.52
64924;HTU21D;51436;44.692;39.214;2024-02-21T06:24:07;3.74;67.43
64924;HTU21D;51436;44.692;39.214;2024-02-21T06:26:33;3.82;67.30
64924;HTU21D;51436;44.692;39.214;2024-02-21T06:28:59;3.88;67.20
64924;HTU21D;51436;44.692;39.214;2024-02-21T06:31:27;3.91;67.10
64924;HTU21D;51436;44.692;39.214;2024-02-21T06:33:54;3.87;67.23
64924;HTU21D;51436;44.692;39.214;2024-02-21T06:36:21;3.87;67.24
64924;HTU21D;51436;44.692;39.214;2024-02-21T06:38:47;3.89;67.20
64924;HTU21D;51436;44.692;39.214;2024-02-21T06:41:20;3.87;67.26
64924;HTU21D;51436;44.692;39.214;2024-02-21T06:43:47;3.89;67.32
64924;HTU21D;51436;44.692;39.214;2024-02-21T06:46:26;3.94;67.21
64924;HTU21D;51436;44.692;39.214;2024-02-21T06:48:53;4.00;67.10
64924;HTU21D;51436;44.692;39.214;2024-02-21T06:51:19;4.04;67.05
64924;HTU21D;51436;44.692;39.214;2024-02-21T06:53:45;4.13;66.92
64924;HTU21D;51436;44.692;39.214;2024-02-21T06:56:12;4.14;66.88
64924;HTU21D;51436;44.692;39.214;2024-02-21T06:58:38;4.14;66.92
64924;HTU21D;51436;44.692;39.214;2024-02-21T07:01:05;4.16;66.94
64924;HTU21D;51436;44.692;39.214;2024-02-21T07:03:31;4.15;66.97
64924;HTU21D;51436;44.692;39.214;2024-02-21T07:05:57;4.15;67.00
64924;HTU21D;51436;44.692;39.214;2024-02-21T07:08:24;4.10;67.09
64924;HTU21D;51436;44.692;39.214;2024-02-21T07:10:53;4.10;67.10
64924;HTU21D;51436;44.692;39.214;2024-02-21T07:13:19;4.06;67.18
64924;HTU21D;51436;44.692;39.214;2024-02-21T07:16:09;3.98;67.34
64924;HTU21D;51436;44.692;39.214;2024-02-21T07:18:35;4.00;67.34
64924;HTU21D;51436;44.692;39.214;2024-02-21T07:21:02;4.08;67.14
64924;HTU21D;51436;44.692;39.214;2024-02-21T07:23:28;4.07;67.10
64924;HTU21D;51436;44.692;39.214;2024-02-21T07:25:55;4.00;67.27
64924;HTU21D;51436;44.692;39.214;2024-02-21T07:28:21;4.01;67.31
64924;HTU21D;51436;44.692;39.214;2024-02-21T07:30:47;4.01;67.23
64924;HTU21D;51436;44.692;39.214;2024-02-21T07:33:14;4.04;67.22
64924;HTU21D;51436;44.692;39.214;2024-02-21T07:35:41;4.06;67.07
64924;HTU21D;51436;44.692;39.214;2024-02-21T07:38:10;4.12;67.02
64924;HTU21D;51436;44.692;39.214;2024-02-21T07:40:38;4.12;67.00
64924;HTU21D;51436;44.692;39.214;2024-02-21T07:43:05;4.12;67.00
64924;HTU21D;51436;44.692;39.214;2024-02-21T07:45:31;4.12;67.07
64924;HTU21D;51436;44.692;39.214;2024-02-21T07:47:57;4.10;67.04
64924;HTU21D;51436;44.692;39.214;2024-02-21T07:50:24;4.13;67.07
64924;HTU21D;51436;44.692;39.214;2024-02-21T07:52:50;4.21;66.89
64924;HTU21D;51436;44.692;39.214;2024-02-21T07:55:16;4.27;66.76
64924;HTU21D;51436;44.692;39.214;2024-02-21T07:57:43;4.33;66.69
64924;HTU21D;51436;44.692;39.214;2024-02-21T08:00:09;4.41;66.49
64924;HTU21D;51436;44.692;39.214;2024-02-21T08:02:41;4.49;66.33
64924;HTU21D;51436;44.692;39.214;2024-02-21T08:05:09;4.47;66.34
64924;HTU21D;51436;44.692;39.214;2024-02-21T08:08:23;4.43;66.54
64924;HTU21D;51436;44.692;39.214;2024-02-21T08:10:52;4.49;66.50
64924;HTU21D;51436;44.692;39.214;2024-02-21T08:13:18;4.58;66.38
64924;HTU21D;51436;44.692;39.214;2024-02-21T08:15:45;4.72;66.11
64924;HTU21D;51436;44.692;39.214;2024-02-21T08:18:11;4.82;65.96
64924;HTU21D;51436;44.692;39.214;2024-02-21T08:20:37;4.93;65.78
64924;HTU21D;51436;44.692;39.214;2024-02-21T08:23:04;4.95;65.66
64924;HTU21D;51436;44.692;39.214;2024-02-21T08:25:30;4.92;65.86
64924;HTU21D;51436;44.692;39.214;2024-02-21T08:27:59;4.91;65.95
64924;HTU21D;51436;44.692;39.214;2024-02-21T08:30:26;4.90;66.01
64924;HTU21D;51436;44.692;39.214;2024-02-21T08:32:52;4.92;65.98
64924;HTU21D;51436;44.692;39.214;2024-02-21T08:35:20;4.91;66.01
64924;HTU21D;51436;44.692;39.214;2024-02-21T08:37:50;4.89;66.01
64924;HTU21D;51436;44.692;39.214;2024-02-21T08:40:16;4.86;66.18
64924;HTU21D;51436;44.692;39.214;2024-02-21T08:43:07;5.00;65.94
64924;HTU21D;51436;44.692;39.214;2024-02-21T08:45:37;5.15;65.54
64924;HTU21D;51436;44.692;39.214;2024-02-21T08:48:09;5.20;65.43
64924;HTU21D;51436;44.692;39.214;2024-02-21T08:50:39;5.21;65.53
64924;HTU21D;51436;44.692;39.214;2024-02-21T08:53:05;5.31;65.39
64924;HTU21D;51436;44.692;39.214;2024-02-21T08:55:31;5.31;65.44
64924;HTU21D;51436;44.692;39.214;2024-02-21T08:57:57;5.43;65.24
64924;HTU21D;51436;44.692;39.214;2024-02-21T09:00:24;5.51;65.11
64924;HTU21D;51436;44.692;39.214;2024-02-21T09:02:53;5.60;65.04
64924;HTU21D;51436;44.692;39.214;2024-02-21T09:05:22;5.64;64.93
64924;HTU21D;51436;44.692;39.214;2024-02-21T09:07:48;5.77;64.82
64924;HTU21D;51436;44.692;39.214;2024-02-21T09:10:14;5.92;64.53
64924;HTU21D;51436;44.692;39.214;2024-02-21T09:12:41;5.97;64.47
64924;HTU21D;51436;44.692;39.214;2024-02-21T09:15:07;6.05;64.32
64924;HTU21D;51436;44.692;39.214;2024-02-21T09:17:34;6.04;64.44
64924;HTU21D;51436;44.692;39.214;2024-02-21T09:20:00;6.07;64.51
64924;HTU21D;51436;44.692;39.214;2024-02-21T09:22:29;6.15;64.39
64924;HTU21D;51436;44.692;39.214;2024-02-21T09:24:55;6.30;64.16
64924;HTU21D;51436;44.692;39.214;2024-02-21T09:27:22;6.44;63.95
64924;HTU21D;51436;44.692;39.214;2024-02-21T09:29:48;6.54;63.77
64924;HTU21D;51436;44.692;39.214;2024-02-21T09:32:14;6.64;63.69
64924;HTU21D;51436;44.692;39.214;2024-02-21T09:34:42;6.67;63.67
64924;HTU21D;51436;44.692;39.214;2024-02-21T09:37:08;6.63;63.75
64924;HTU21D;51436;44.692;39.214;2024-02-21T09:39:35;6.57;63.93
64924;HTU21D;51436;44.692;39.214;2024-02-21T09:42:06;6.50;64.09
64924;HTU21D;51436;44.692;39.214;2024-02-21T09:44:38;6.48;64.26
64924;HTU21D;51436;44.692;39.214;2024-02-21T09:47:38;6.48;64.25
64924;HTU21D;51436;44.692;39.214;2024-02-21T09:50:21;6.46;64.28
64924;HTU21D;51436;44.692;39.214;2024-02-21T09:52:49;6.50;64.25
64924;HTU21D;51436;44.692;39.214;2024-02-21T09:55:18;6.54;64.17
64924;HTU21D;51436;44.692;39.214;2024-02-21T09:57:45;6.66;64.02
64924;HTU21D;51436;44.692;39.214;2024-02-21T10:00:12;6.76;63.82
64924;HTU21D;51436;44.692;39.214;2024-02-21T10:02:50;6.87;63.66
64924;HTU21D;51436;44.692;39.214;2024-02-21T10:05:16;6.97;63.50
64924;HTU21D;51436;44.692;39.214;2024-02-21T10:07:48;7.10;63.29
64924;HTU21D;51436;44.692;39.214;2024-02-21T10:10:15;7.15;63.16
64924;HTU21D;51436;44.692;39.214;2024-02-21T10:12:49;7.18;63.20
64924;HTU21D;51436;44.692;39.214;2024-02-21T10:15:19;7.09;63.38
64924;HTU21D;51436;44.692;39.214;2024-02-21T10:17:45;7.08;63.46
64924;HTU21D;51436;44.692;39.214;2024-02-21T10:20:12;6.99;63.60
64924;HTU21D;51436;44.692;39.214;2024-02-21T10:22:40;7.03;63.66
64924;HTU21D;51436;44.692;39.214;2024-02-21T10:25:10;7.15;63.47
64924;HTU21D;51436;44.692;39.214;2024-02-21T10:27:38;7.27;63.22
64924;HTU21D;51436;44.692;39.214;2024-02-21T10:30:06;7.37;63.02
64924;HTU21D;51436;44.692;39.214;2024-02-21T10:32:33;7.39;63.02
64924;HTU21D;51436;44.692;39.214;2024-02-21T10:35:02;7.35;63.10
64924;HTU21D;51436;44.692;39.214;2024-02-21T10:37:31;7.41;63.07
64924;HTU21D;51436;44.692;39.214;2024-02-21T10:40:00;7.45;63.04
64924;HTU21D;51436;44.692;39.214;2024-02-21T10:42:35;7.56;62.89
64924;HTU21D;51436;44.692;39.214;2024-02-21T10:45:05;7.70;62.64
64924;HTU21D;51436;44.692;39.214;2024-02-21T10:47:35;7.84;62.45
64924;HTU21D;51436;44.692;39.214;2024-02-21T10:50:04;7.91;62.33
64924;HTU21D;51436;44.692;39.214;2024-02-21T10:52:39;7.89;62.39
64924;HTU21D;51436;44.692;39.214;2024-02-21T10:55:20;7.87;62.49
64924;HTU21D;51436;44.692;39.214;2024-02-21T10:57:50;7.86;62.53
64924;HTU21D;51436;44.692;39.214;2024-02-21T11:00:18;7.87;62.59
64924;HTU21D;51436;44.692;39.214;2024-02-21T11:02:46;7.90;62.54
64924;HTU21D;51436;44.692;39.214;2024-02-21T11:05:13;7.85;62.61
64924;HTU21D;51436;44.692;39.214;2024-02-21T11:07:41;7.75;62.82
64924;HTU21D;51436;44.692;39.214;2024-02-21T11:10:23;7.65;62.96
64924;HTU21D;51436;44.692;39.214;2024-02-21T11:15:51;7.55;63.21
64924;HTU21D;51436;44.692;39.214;2024-02-21T11:18:24;7.65;63.02
64924;HTU21D;51436;44.692;39.214;2024-02-21T11:20:50;7.77;62.74
64924;HTU21D;51436;44.692;39.214;2024-02-21T11:23:27;7.91;62.44
64924;HTU21D;51436;44.692;39.214;2024-02-21T11:26:07;7.99;62.28
64924;HTU21D;51436;44.692;39.214;2024-02-21T11:28:34;8.07;62.16
64924;HTU21D;51436;44.692;39.214;2024-02-21T11:31:11;8.22;61.92
64924;HTU21D;51436;44.692;39.214;2024-02-21T11:33:41;8.32;61.74
64924;HTU21D;51436;44.692;39.214;2024-02-21T11:36:10;8.39;61.60
64924;HTU21D;51436;44.692;39.214;2024-02-21T11:38:37;8.44;61.57
64924;HTU21D;51436;44.692;39.214;2024-02-21T11:41:08;8.46;61.57
64924;HTU21D;51436;44.692;39.214;2024-02-21T11:43:35;8.49;61.51
64924;HTU21D;51436;44.692;39.214;2024-02-21T11:46:01;8.49;61.57
64924;HTU21D;51436;44.692;39.214;2024-02-21T11:48:44;8.47;61.57
64924;HTU21D;51436;44.692;39.214;2024-02-21T11:51:31;8.46;61.63
64924;HTU21D;51436;44.692;39.214;2024-02-21T11:54:00;8.49;61.57
64924;HTU21D;51436;44.692;39.214;2024-02-21T11:56:26;8.55;61.48
64924;HTU21D;51436;44.692;39.214;2024-02-21T11:58:53;8.57;61.44
64924;HTU21D;51436;44.692;39.214;2024-02-21T12:01:19;8.58;61.43
64924;HTU21D;51436;44.692;39.214;2024-02-21T12:03:47;8.60;61.44
64924;HTU21D;51436;44.692;39.214;2024-02-21T12:06:17;8.59;61.47
64924;HTU21D;51436;44.692;39.214;2024-02-21T12:08:48;8.64;61.36
64924;HTU21D;51436;44.692;39.214;2024-02-21T12:11:21;8.66;61.33
64924;HTU21D;51436;44.692;39.214;2024-02-21T12:14:00;8.64;61.39
64924;HTU21D;51436;44.692;39.214;2024-02-21T12:16:34;8.62;61.30
64924;HTU21D;51436;44.692;39.214;2024-02-21T12:19:03;8.64;61.25
64924;HTU21D;51436;44.692;39.214;2024-02-21T12:21:33;8.62;61.30
64924;HTU21D;51436;44.692;39.214;2024-02-21T12:26:42;8.64;61.25
64924;HTU21D;51436;44.692;39.214;2024-02-21T12:29:08;8.62;61.25
64924;HTU21D;51436;44.692;39.214;2024-02-21T12:31:38;8.59;61.28
64924;HTU21D;51436;44.692;39.214;2024-02-21T12:34:05;8.59;61.26
64924;HTU21D;51436;44.692;39.214;2024-02-21T12:36:33;8.57;61.29
64924;HTU21D;51436;44.692;39.214;2024-02-21T12:38:59;8.51;61.31
64924;HTU21D;51436;44.692;39.214;2024-02-21T12:41:29;8.46;61.43
64924;HTU21D;51436;44.692;39.214;2024-02-21T12:43:58;8.49;61.38
64924;HTU21D;51436;44.692;39.214;2024-02-21T12:46:25;8.45;61.35
64924;HTU21D;51436;44.692;39.214;2024-02-21T12:48:55;8.36;61.43
64924;HTU21D;51436;44.692;39.214;2024-02-21T12:51:21;8.30;61.56
64924;HTU21D;51436;44.692;39.214;2024-02-21T12:53:48;8.35;61.45
64924;HTU21D;51436;44.692;39.214;2024-02-21T12:56:16;8.46;61.26
64924;HTU21D;51436;44.692;39.214;2024-02-21T12:58:43;8.50;61.13
64924;HTU21D;51436;44.692;39.214;2024-02-21T13:01:10;8.51;61.10
64924;HTU21D;51436;44.692;39.214;2024-02-21T13:03:37;8.48;61.12
64924;HTU21D;51436;44.692;39.214;2024-02-21T13:06:05;8.49;61.09
64924;HTU21D;51436;44.692;39.214;2024-02-21T13:08:31;8.47;61.15
64924;HTU21D;51436;44.692;39.214;2024-02-21T13:10:58;8.44;61.15
64924;HTU21D;51436;44.692;39.214;2024-02-21T13:13:24;8.44;61.18
64924;HTU21D;51436;44.692;39.214;2024-02-21T13:15:50;8.45;61.13
64924;HTU21D;51436;44.692;39.214;2024-02-21T13:18:17;8.44;61.09
64924;HTU21D;51436;44.692;39.214;2024-02-21T13:20:43;8.42;61.15
64924;HTU21D;51436;44.692;39.214;2024-02-21T13:23:09;8.41;61.14
64924;HTU21D;51436;44.692;39.214;2024-02-21T13:25:36;8.39;61.15
64924;HTU21D;51436;44.692;39.214;2024-02-21T13:28:02;8.35;61.20
64924;HTU21D;51436;44.692;39.214;2024-02-21T13:30:29;8.36;61.21
64924;HTU21D;51436;44.692;39.214;2024-02-21T13:32:56;8.37;61.16
64924;HTU21D;51436;44.692;39.214;2024-02-21T13:35:23;8.37;61.13
64924;HTU21D;51436;44.692;39.214;2024-02-21T13:37:49;8.33;61.18
64924;HTU21D;51436;44.692;39.214;2024-02-21T13:40:16;8.27;61.29
64924;HTU21D;51436;44.692;39.214;2024-02-21T13:42:42;8.19;61.42
64924;HTU21D;51436;44.692;39.214;2024-02-21T13:45:09;8.16;61.46
64924;HTU21D;51436;44.692;39.214;2024-02-21T13:47:36;8.13;61.48
64924;HTU21D;51436;44.692;39.214;2024-02-21T13:50:02;8.11;61.46
64924;HTU21D;51436;44.692;39.214;2024-02-21T13:52:37;8.04;61.52
64924;HTU21D;51436;44.692;39.214;2024-02-21T13:55:07;7.98;61.58
64924;HTU21D;51436;44.692;39.214;2024-02-21T13:57:42;7.92;61.65
64924;HTU21D;51436;44.692;39.214;2024-02-21T14:00:12;7.85;61.73
64924;HTU21D;51436;44.692;39.214;2024-02-21T14:02:38;7.77;61.85
64924;HTU21D;51436;44.692;39.214;2024-02-21T14:05:08;7.68;61.94
64924;HTU21D;51436;44.692;39.214;2024-02-21T14:07:35;7.64;61.99
64924;HTU21D;51436;44.692;39.214;2024-02-21T14:10:01;7.60;62.02
64924;HTU21D;51436;44.692;39.214;2024-02-21T14:12:28;7.58;62.01
64924;HTU21D;51436;44.692;39.214;2024-02-21T14:14:57;7.50;62.08
64924;HTU21D;51436;44.692;39.214;2024-02-21T14:17:24;7.38;62.18
64924;HTU21D;51436;44.692;39.214;2024-02-21T14:19:51;7.29;62.34
64924;HTU21D;51436;44.692;39.214;2024-02-21T14:22:17;7.24;62.36
64924;HTU21D;51436;44.692;39.214;2024-02-21T14:24:45;7.18;62.41
64924;HTU21D;51436;44.692;39.214;2024-02-21T14:27:11;7.16;62.43
64924;HTU21D;51436;44.692;39.214;2024-02-21T14:29:38;7.10;62.43
64924;HTU21D;51436;44.692;39.214;2024-02-21T14:32:05;7.04;62.49
64924;HTU21D;51436;44.692;39.214;2024-02-21T14:34:33;6.98;62.57
64924;HTU21D;51436;44.692;39.214;2024-02-21T14:36:59;6.93;62.60
64924;HTU21D;51436;44.692;39.214;2024-02-21T14:39:25;6.88;62.65
64924;HTU21D;51436;44.692;39.214;2024-02-21T14:41:53;6.84;62.69
64924;HTU21D;51436;44.692;39.214;2024-02-21T14:44:19;6.75;62.76
64924;HTU21D;51436;44.692;39.214;2024-02-21T14:46:45;6.69;62.81
64924;HTU21D;51436;44.692;39.214;2024-02-21T14:49:12;6.64;62.88
64924;HTU21D;51436;44.692;39.214;2024-02-21T14:51:38;6.59;62.89
64924;HTU21D;51436;44.692;39.214;2024-02-21T14:54:05;6.55;62.92
64924;HTU21D;51436;44.692;39.214;2024-02-21T14:56:31;6.56;62.90
64924;HTU21D;51436;44.692;39.214;2024-02-21T14:58:57;6.57;62.85
64924;HTU21D;51436;44.692;39.214;2024-02-21T15:01:24;6.55;62.84
64924;HTU21D;51436;44.692;39.214;2024-02-21T15:03:51;6.52;62.86
64924;HTU21D;51436;44.692;39.214;2024-02-21T15:06:17;6.49;62.89
64924;HTU21D;51436;44.692;39.214;2024-02-21T15:08:43;6.46;62.88
64924;HTU21D;51436;44.692;39.214;2024-02-21T15:11:10;6.46;62.86
64924;HTU21D;51436;44.692;39.214;2024-02-21T15:13:36;6.49;62.82
64924;HTU21D;51436;44.692;39.214;2024-02-21T15:16:06;6.45;62.80
64924;HTU21D;51436;44.692;39.214;2024-02-21T15:18:32;6.40;62.90
64924;HTU21D;51436;44.692;39.214;2024-02-21T15:20:59;6.34;62.97
64924;HTU21D;51436;44.692;39.214;2024-02-21T15:23:27;6.30;63.02
64924;HTU21D;51436;44.692;39.214;2024-02-21T15:25:53;6.28;63.02